SAS3209 ESGG-EKBI
Flight info
| Callsign | SAS3209 |
|---|---|
| Flight time | 0h 42m |
| Altitude | 22000 |
| Route | DETNA N866 AAL/N0404F210 P622 INTET |
| Aircraft | A339/H-SADE1E2E3GHIJ3J5M1P2RWXY/LB2D1 |
Departure
| Time | 2025-10-08 13:56 |
|---|---|
| Airport | Göteborg Landvetter Airport (ESGG) |
Arrival
| Time | 2025-10-08 14:38 |
|---|---|
| Airport | Billund Airport (EKBI) |
| Time | Latitude | Longitude | Altitude | Speed | Heading |
|---|---|---|---|---|---|
| 2025-10-08 13:28 | 57.66493 | 12.28838 | 522 ft | 0 kts | 296° |
| 2025-10-08 13:36 | 57.66492 | 12.28839 | 522 ft | 0 kts | 296° |
| 2025-10-08 13:45 | 57.66476 | 12.28884 | 523 ft | 1 kts | 233° |
| 2025-10-08 13:46 | 57.66467 | 12.28892 | 522 ft | 0 kts | 17° |
| 2025-10-08 13:46 | 57.66466 | 12.28891 | 522 ft | 0 kts | 13° |
| 2025-10-08 13:47 | 57.66428 | 12.28912 | 522 ft | 0 kts | 24° |
| 2025-10-08 13:49 | 57.66435 | 12.28917 | 522 ft | 2 kts | 24° |
| 2025-10-08 13:50 | 57.66536 | 12.28954 | 522 ft | 12 kts | 1° |
| 2025-10-08 13:50 | 57.66626 | 12.28901 | 522 ft | 6 kts | 314° |
| 2025-10-08 13:51 | 57.66681 | 12.28869 | 522 ft | 12 kts | 359° |
| 2025-10-08 13:52 | 57.67161 | 12.29291 | 522 ft | 24 kts | 26° |
| 2025-10-08 13:52 | 57.67314 | 12.29431 | 522 ft | 22 kts | 27° |
| 2025-10-08 13:53 | 57.67561 | 12.29509 | 522 ft | 15 kts | 308° |
| 2025-10-08 13:53 | 57.67585 | 12.29425 | 522 ft | 8 kts | 292° |
| 2025-10-08 13:53 | 57.67578 | 12.29202 | 522 ft | 14 kts | 249° |
| 2025-10-08 13:54 | 57.67316 | 12.28919 | 520 ft | 72 kts | 207° |
| 2025-10-08 13:54 | 57.65594 | 12.27387 | 767 ft | 177 kts | 209° |
| 2025-10-08 13:55 | 57.63267 | 12.25251 | 2240 ft | 191 kts | 211° |
| 2025-10-08 13:56 | 57.59353 | 12.21617 | 3630 ft | 239 kts | 210° |
| 2025-10-08 13:56 | 57.56737 | 12.17666 | 4643 ft | 249 kts | 248° |
| 2025-10-08 13:57 | 57.56020 | 12.11340 | 6020 ft | 251 kts | 262° |
| 2025-10-08 13:57 | 57.55714 | 12.08137 | 6748 ft | 251 kts | 261° |
| 2025-10-08 13:57 | 57.55050 | 12.01685 | 8131 ft | 256 kts | 260° |
| 2025-10-08 13:58 | 57.54351 | 11.95141 | 9609 ft | 259 kts | 260° |
| 2025-10-08 13:58 | 57.54088 | 11.88295 | 10465 ft | 283 kts | 275° |
| 2025-10-08 13:59 | 57.54593 | 11.80639 | 11061 ft | 310 kts | 276° |
| 2025-10-08 14:00 | 57.55300 | 11.68532 | 12902 ft | 317 kts | 275° |
| 2025-10-08 14:00 | 57.55788 | 11.60280 | 14087 ft | 323 kts | 276° |
| 2025-10-08 14:01 | 57.56284 | 11.51938 | 15119 ft | 329 kts | 275° |
| 2025-10-08 14:01 | 57.56530 | 11.47676 | 15645 ft | 332 kts | 275° |
| 2025-10-08 14:01 | 57.57017 | 11.39034 | 16674 ft | 339 kts | 275° |
| 2025-10-08 14:02 | 57.57496 | 11.30200 | 17695 ft | 345 kts | 275° |
| 2025-10-08 14:02 | 57.57974 | 11.21271 | 18666 ft | 351 kts | 275° |
| 2025-10-08 14:03 | 57.58453 | 11.12169 | 19599 ft | 355 kts | 270° |
| 2025-10-08 14:04 | 57.55639 | 10.99678 | 20028 ft | 362 kts | 232° |
| 2025-10-08 14:04 | 57.52391 | 10.92510 | 20032 ft | 365 kts | 232° |
| 2025-10-08 14:05 | 57.49079 | 10.85094 | 19747 ft | 371 kts | 233° |
| 2025-10-08 14:05 | 57.47434 | 10.81388 | 19503 ft | 371 kts | 233° |
| 2025-10-08 14:05 | 57.44173 | 10.74053 | 19032 ft | 369 kts | 232° |
| 2025-10-08 14:06 | 57.40849 | 10.66766 | 18524 ft | 366 kts | 232° |
| 2025-10-08 14:06 | 57.37615 | 10.59517 | 17780 ft | 363 kts | 233° |
| 2025-10-08 14:07 | 57.34464 | 10.52413 | 16136 ft | 352 kts | 233° |
| 2025-10-08 14:08 | 57.30113 | 10.42726 | 13872 ft | 339 kts | 233° |
| 2025-10-08 14:08 | 57.27112 | 10.36187 | 12177 ft | 331 kts | 232° |
| 2025-10-08 14:08 | 57.25650 | 10.33005 | 11638 ft | 317 kts | 232° |
| 2025-10-08 14:09 | 57.22931 | 10.27076 | 10648 ft | 288 kts | 233° |
| 2025-10-08 14:09 | 57.20461 | 10.21610 | 9648 ft | 266 kts | 233° |
| 2025-10-08 14:10 | 57.18121 | 10.16487 | 8825 ft | 264 kts | 233° |
| 2025-10-08 14:10 | 57.15754 | 10.11355 | 8076 ft | 262 kts | 233° |
| 2025-10-08 14:11 | 57.14581 | 10.08779 | 7929 ft | 263 kts | 233° |
| 2025-10-08 14:12 | 57.09599 | 9.99093 | 7421 ft | 266 kts | 214° |
| 2025-10-08 14:12 | 57.06103 | 9.96630 | 7184 ft | 270 kts | 204° |
| 2025-10-08 14:12 | 57.04334 | 9.95463 | 7062 ft | 269 kts | 205° |
| 2025-10-08 14:13 | 57.00813 | 9.93060 | 6822 ft | 269 kts | 205° |
| 2025-10-08 14:13 | 56.97318 | 9.90687 | 6573 ft | 267 kts | 205° |
| 2025-10-08 14:14 | 56.93858 | 9.88311 | 6318 ft | 267 kts | 204° |
| 2025-10-08 14:14 | 56.90379 | 9.85966 | 6064 ft | 266 kts | 205° |
| 2025-10-08 14:15 | 56.86913 | 9.83611 | 5802 ft | 265 kts | 204° |
| 2025-10-08 14:16 | 56.81729 | 9.80127 | 5428 ft | 264 kts | 204° |
| 2025-10-08 14:16 | 56.79602 | 9.78705 | 5271 ft | 264 kts | 202° |
| 2025-10-08 14:16 | 56.75260 | 9.75888 | 4948 ft | 264 kts | 204° |
| 2025-10-08 14:17 | 56.71811 | 9.73575 | 4696 ft | 264 kts | 203° |
| 2025-10-08 14:17 | 56.68405 | 9.71281 | 4432 ft | 261 kts | 204° |
| 2025-10-08 14:18 | 56.64977 | 9.68949 | 4173 ft | 261 kts | 202° |
| 2025-10-08 14:18 | 56.61573 | 9.66732 | 3909 ft | 261 kts | 203° |
| 2025-10-08 14:19 | 56.58162 | 9.64456 | 3655 ft | 261 kts | 203° |
| 2025-10-08 14:20 | 56.53067 | 9.61085 | 3284 ft | 260 kts | 203° |
| 2025-10-08 14:20 | 56.51366 | 9.59958 | 3151 ft | 259 kts | 204° |
| 2025-10-08 14:20 | 56.47988 | 9.57691 | 2969 ft | 258 kts | 203° |
| 2025-10-08 14:21 | 56.44593 | 9.55461 | 2979 ft | 259 kts | 201° |
| 2025-10-08 14:21 | 56.41176 | 9.53334 | 2981 ft | 259 kts | 203° |
| 2025-10-08 14:22 | 56.37829 | 9.51052 | 2976 ft | 259 kts | 204° |
| 2025-10-08 14:22 | 56.34458 | 9.48808 | 2979 ft | 258 kts | 202° |
| 2025-10-08 14:23 | 56.31068 | 9.46606 | 2980 ft | 257 kts | 202° |
| 2025-10-08 14:24 | 56.26006 | 9.43429 | 2987 ft | 257 kts | 200° |
| 2025-10-08 14:24 | 56.24314 | 9.42356 | 2984 ft | 258 kts | 204° |
| 2025-10-08 14:24 | 56.20821 | 9.41418 | 2984 ft | 250 kts | 175° |
| 2025-10-08 14:25 | 56.17566 | 9.42218 | 2986 ft | 232 kts | 176° |
| 2025-10-08 14:25 | 56.14374 | 9.43059 | 2978 ft | 233 kts | 175° |
| 2025-10-08 14:26 | 56.11160 | 9.43683 | 2982 ft | 234 kts | 177° |
| 2025-10-08 14:26 | 56.08456 | 9.44198 | 2977 ft | 233 kts | 176° |
| 2025-10-08 14:27 | 56.05252 | 9.44914 | 2975 ft | 233 kts | 173° |
| 2025-10-08 14:27 | 56.02023 | 9.45700 | 2973 ft | 234 kts | 176° |
| 2025-10-08 14:28 | 55.98822 | 9.46326 | 2975 ft | 232 kts | 176° |
| 2025-10-08 14:28 | 55.95600 | 9.46955 | 2981 ft | 232 kts | 177° |
| 2025-10-08 14:29 | 55.92376 | 9.47610 | 2977 ft | 234 kts | 176° |
| 2025-10-08 14:29 | 55.89151 | 9.48307 | 2980 ft | 232 kts | 176° |
| 2025-10-08 14:30 | 55.85965 | 9.48999 | 2983 ft | 231 kts | 176° |
| 2025-10-08 14:30 | 55.82781 | 9.49689 | 2978 ft | 231 kts | 176° |
| 2025-10-08 14:31 | 55.79579 | 9.50420 | 2981 ft | 230 kts | 175° |
| 2025-10-08 14:32 | 55.75508 | 9.49174 | 2972 ft | 173 kts | 233° |
| 2025-10-08 14:32 | 55.74994 | 9.47420 | 2984 ft | 161 kts | 257° |
| 2025-10-08 14:32 | 55.74878 | 9.43374 | 2981 ft | 155 kts | 268° |
| 2025-10-08 14:33 | 55.74801 | 9.39543 | 2741 ft | 151 kts | 268° |
| 2025-10-08 14:33 | 55.74684 | 9.35965 | 2334 ft | 145 kts | 268° |
| 2025-10-08 14:34 | 55.74580 | 9.32491 | 1950 ft | 144 kts | 266° |
| 2025-10-08 14:34 | 55.74470 | 9.28990 | 1544 ft | 142 kts | 269° |
| 2025-10-08 14:35 | 55.74346 | 9.25507 | 1208 ft | 143 kts | 266° |
| 2025-10-08 14:36 | 55.74178 | 9.20282 | 491 ft | 146 kts | 268° |
| 2025-10-08 14:36 | 55.74121 | 9.18465 | 330 ft | 148 kts | 269° |
| 2025-10-08 14:36 | 55.74039 | 9.15292 | 222 ft | 85 kts | 267° |
| 2025-10-08 14:37 | 55.74064 | 9.14505 | 223 ft | 14 kts | 336° |
| 2025-10-08 14:37 | 55.74102 | 9.14495 | 224 ft | 0 kts | 354° |
| 2025-10-08 14:38 | 55.74162 | 9.14508 | 226 ft | 7 kts | 30° |
| 2025-10-08 14:39 | 55.74188 | 9.14750 | 222 ft | 13 kts | 86° |
| 2025-10-08 14:40 | 55.74381 | 9.14979 | 228 ft | 13 kts | 355° |
| 2025-10-08 14:40 | 55.74465 | 9.15014 | 225 ft | 9 kts | 10° |
| 2025-10-08 14:40 | 55.74535 | 9.15013 | 228 ft | 0 kts | 357° |